Time;durP1;ratioP1;P1;durP2;ratioP2;P2;SDS_P1;SDS_P2;PMS_P1;PMS_P2;Temp;Humidity;BMP_temperature;BMP_pressure;BME280_temperature;BME280_humidity;BME280_pressure;Samples;Min_cycle;Max_cycle;Signal;HPM_P1;HPM_P2
2021/03/09 00:00:05;;;;;;;68.80;34.87;;;5.90;99.90;;;;;;5089544;28;20465;-67
2021/03/09 00:02:31;;;;;;;78.50;37.47;;;5.80;99.90;;;;;;5101960;28;20807;-64
2021/03/09 00:04:58;;;;;;;87.70;37.70;;;5.80;99.90;;;;;;5091477;28;20448;-65
2021/03/09 00:07:25;;;;;;;91.80;41.07;;;5.80;99.90;;;;;;5090765;28;20467;-65
2021/03/09 00:09:52;;;;;;;81.93;38.60;;;5.70;99.90;;;;;;5092127;28;20414;-64
2021/03/09 00:12:19;;;;;;;91.87;40.90;;;5.80;99.90;;;;;;5110859;28;20506;-66
2021/03/09 00:14:46;;;;;;;75.97;38.03;;;5.70;99.90;;;;;;5110315;28;20443;-65
2021/03/09 00:17:12;;;;;;;81.00;36.97;;;5.70;99.90;;;;;;5110065;28;20425;-65
2021/03/09 00:19:39;;;;;;;86.20;40.50;;;5.80;99.90;;;;;;5110197;28;21058;-66
2021/03/09 00:22:05;;;;;;;70.60;35.87;;;5.80;99.90;;;;;;5110698;28;20430;-66
2021/03/09 00:24:33;;;;;;;85.07;40.70;;;5.80;99.90;;;;;;5084357;28;20458;-65
2021/03/09 00:26:59;;;;;;;79.70;39.30;;;5.80;99.90;;;;;;5109049;28;20820;-65
2021/03/09 00:29:26;;;;;;;83.90;38.30;;;5.80;99.90;;;;;;5088310;28;20906;-64
2021/03/09 00:31:52;;;;;;;89.53;42.20;;;5.80;99.90;;;;;;5109931;28;20462;-64
2021/03/09 00:34:19;;;;;;;83.70;39.47;;;5.80;99.90;;;;;;5091964;28;20877;-64
2021/03/09 00:36:45;;;;;;;81.77;40.17;;;5.80;99.90;;;;;;5107281;28;20481;-64
2021/03/09 00:39:12;;;;;;;88.17;38.57;;;5.80;99.90;;;;;;5098720;28;20968;-65
2021/03/09 00:41:39;;;;;;;91.77;40.80;;;5.80;99.90;;;;;;5109059;28;20455;-65
2021/03/09 00:44:06;;;;;;;80.90;39.30;;;5.70;99.90;;;;;;5109012;28;20517;-64
2021/03/09 00:46:33;;;;;;;87.50;41.37;;;5.70;99.90;;;;;;5110050;28;20453;-64
2021/03/09 00:48:59;;;;;;;82.90;37.13;;;5.70;99.90;;;;;;5107901;28;20520;-65
2021/03/09 00:51:26;;;;;;;86.40;42.87;;;5.60;99.90;;;;;;5110250;28;20457;-65
2021/03/09 00:53:52;;;;;;;84.30;40.27;;;5.60;99.90;;;;;;5092285;28;20456;-64
2021/03/09 00:56:19;;;;;;;83.30;40.40;;;5.50;99.90;;;;;;5108092;28;20444;-66
2021/03/09 00:58:46;;;;;;;88.03;41.90;;;5.50;99.90;;;;;;5099596;28;20965;-67
2021/03/09 01:01:13;;;;;;;80.30;39.80;;;5.50;99.90;;;;;;5091599;28;20448;-64
2021/03/09 01:03:39;;;;;;;93.90;42.77;;;5.60;99.90;;;;;;5109733;28;20463;-66
2021/03/09 01:06:06;;;;;;;94.20;42.80;;;5.60;99.90;;;;;;5109128;28;20509;-66
2021/03/09 01:08:32;;;;;;;88.43;43.30;;;5.60;99.90;;;;;;5111298;28;20521;-64
2021/03/09 01:10:59;;;;;;;85.67;38.60;;;5.50;99.90;;;;;;5096781;28;20461;-65
2021/03/09 01:13:25;;;;;;;83.87;38.60;;;5.60;99.90;;;;;;5111257;28;20952;-64
2021/03/09 01:15:53;;;;;;;78.30;38.73;;;5.60;99.90;;;;;;5113671;28;20431;-64
2021/03/09 01:18:20;;;;;;;77.13;38.27;;;5.50;99.90;;;;;;5112665;28;20788;-65
2021/03/09 01:20:47;;;;;;;77.77;41.60;;;5.50;99.90;;;;;;5112648;28;20489;-67
2021/03/09 01:23:14;;;;;;;78.33;39.90;;;5.50;99.90;;;;;;5113468;28;20514;-64
2021/03/09 01:25:40;;;;;;;84.23;39.37;;;5.60;99.90;;;;;;5112680;28;20424;-67
2021/03/09 01:28:07;;;;;;;73.57;38.27;;;5.60;99.90;;;;;;5113871;28;20442;-64
2021/03/09 01:30:33;;;;;;;79.37;40.23;;;5.60;99.90;;;;;;5112419;28;20452;-65
2021/03/09 01:33:01;;;;;;;83.73;40.53;;;5.60;99.90;;;;;;5114512;28;21042;-64
2021/03/09 01:35:27;;;;;;;83.40;41.20;;;5.60;99.90;;;;;;5111789;28;20434;-65
2021/03/09 01:37:54;;;;;;;82.70;39.10;;;5.60;99.90;;;;;;5108952;28;20449;-64
2021/03/09 01:40:22;;;;;;;83.43;38.67;;;5.60;99.90;;;;;;5093203;28;20457;-66
2021/03/09 01:42:48;;;;;;;79.00;42.53;;;5.60;99.90;;;;;;5113797;28;20576;-67
2021/03/09 01:45:15;;;;;;;82.93;39.27;;;5.60;99.90;;;;;;5113486;28;20443;-64
2021/03/09 01:47:44;;;;;;;76.30;38.80;;;5.60;99.90;;;;;;5113724;28;20449;-64
2021/03/09 01:50:14;;;;;;;70.63;36.47;;;5.50;99.90;;;;;;5110364;28;20802;-64
2021/03/09 01:52:42;;;;;;;68.47;35.90;;;5.60;99.90;;;;;;5114381;28;20963;-67
2021/03/09 01:55:10;;;;;;;72.13;36.00;;;5.50;99.90;;;;;;5112907;28;20424;-64
2021/03/09 01:57:37;;;;;;;70.83;36.83;;;5.50;99.90;;;;;;5112834;28;20834;-65
2021/03/09 02:00:05;;;;;;;71.67;39.67;;;5.50;99.90;;;;;;5094170;28;20449;-64
2021/03/09 02:02:32;;;;;;;69.10;38.07;;;5.40;99.90;;;;;;5109454;28;20486;-64
2021/03/09 02:04:58;;;;;;;70.97;39.07;;;5.30;99.90;;;;;;5113312;28;21016;-66
2021/03/09 02:07:26;;;;;;;68.50;37.03;;;5.30;99.90;;;;;;5112629;27;20893;-65
2021/03/09 02:09:53;;;;;;;80.03;41.83;;;5.30;99.90;;;;;;5100922;27;20552;-64
2021/03/09 02:12:24;;;;;;;79.30;40.80;;;5.20;99.90;;;;;;5111704;28;20458;-64
2021/03/09 02:15:07;;;;;;;70.10;38.93;;;5.20;99.90;;;;;;5113080;28;20575;-64
2021/03/09 02:17:37;;;;;;;77.07;38.87;;;5.10;99.90;;;;;;5113456;28;20527;-64
2021/03/09 02:20:44;;;;;;;66.07;37.20;;;5.10;99.90;;;;;;5112612;28;20456;-64
2021/03/09 02:23:46;;;;;;;79.63;42.27;;;5.10;99.90;;;;;;5114874;28;21035;-64
2021/03/09 02:26:30;;;;;;;76.47;40.47;;;5.00;99.90;;;;;;5094836;28;20460;-65
2021/03/09 02:29:08;;;;;;;67.80;36.20;;;5.00;99.90;;;;;;5112287;28;20443;-64
2021/03/09 02:31:37;;;;;;;82.20;41.20;;;5.10;99.90;;;;;;5112715;28;20447;-64
2021/03/09 02:34:10;;;;;;;78.20;40.07;;;5.00;99.90;;;;;;5111633;28;20431;-65
2021/03/09 02:36:38;;;;;;;73.93;37.30;;;5.00;99.90;;;;;;5109883;28;20461;-64
2021/03/09 02:39:08;;;;;;;75.40;39.70;;;5.10;99.90;;;;;;5111151;28;20506;-64
2021/03/09 02:41:40;;;;;;;81.07;40.60;;;5.10;99.90;;;;;;5111951;28;20503;-65
2021/03/09 02:44:09;;;;;;;73.87;38.87;;;5.10;99.90;;;;;;5112477;28;20455;-64
2021/03/09 02:46:39;;;;;;;82.17;39.43;;;5.20;99.90;;;;;;5114215;28;20452;-67
2021/03/09 02:49:08;;;;;;;69.93;39.23;;;5.20;99.90;;;;;;5112011;28;20458;-66
2021/03/09 02:51:36;;;;;;;75.30;40.47;;;5.20;99.90;;;;;;5111634;28;20530;-63
2021/03/09 02:54:04;;;;;;;72.50;38.03;;;5.20;99.90;;;;;;5112145;28;20451;-64
2021/03/09 02:56:30;;;;;;;90.90;44.93;;;5.20;99.90;;;;;;5094559;28;20446;-64
2021/03/09 02:58:57;;;;;;;71.73;38.77;;;5.10;99.90;;;;;;5109745;28;20539;-64
2021/03/09 03:01:26;;;;;;;75.07;36.20;;;5.00;99.90;;;;;;5112304;28;21061;-64
2021/03/09 03:03:54;;;;;;;85.57;41.27;;;5.00;99.90;;;;;;5111009;28;20529;-66
2021/03/09 03:06:22;;;;;;;77.17;37.27;;;5.00;99.90;;;;;;5110123;28;20452;-64
2021/03/09 03:08:49;;;;;;;80.13;40.70;;;5.00;99.90;;;;;;5108878;28;20528;-64
2021/03/09 03:11:18;;;;;;;66.37;35.23;;;4.90;99.90;;;;;;5104116;28;20471;-68
2021/03/09 03:13:45;;;;;;;70.47;36.37;;;4.90;99.90;;;;;;5121900;27;20429;-67
2021/03/09 03:16:12;;;;;;;74.07;37.80;;;4.90;99.90;;;;;;5110210;28;20424;-66
2021/03/09 03:18:41;;;;;;;68.10;37.57;;;4.90;99.90;;;;;;5111749;28;20471;-65
2021/03/09 03:21:10;;;;;;;60.50;33.23;;;5.00;99.90;;;;;;5111939;28;20845;-65
2021/03/09 03:23:37;;;;;;;68.60;36.10;;;4.90;99.90;;;;;;5110748;28;20487;-64
2021/03/09 03:26:06;;;;;;;64.87;35.20;;;5.00;99.90;;;;;;5110146;28;20439;-65
2021/03/09 03:28:34;;;;;;;65.73;36.30;;;4.90;99.90;;;;;;5110226;28;20822;-65
2021/03/09 03:31:03;;;;;;;58.93;35.00;;;4.90;99.90;;;;;;5109522;27;20449;-64
2021/03/09 03:33:29;;;;;;;68.63;34.67;;;4.80;99.90;;;;;;5111755;28;20534;-65
2021/03/09 03:36:03;;;;;;;66.30;34.70;;;4.70;99.90;;;;;;5105068;28;20467;-67
2021/03/09 03:38:32;;;;;;;62.40;32.70;;;4.70;99.90;;;;;;5106626;28;20449;-65
2021/03/09 03:40:59;;;;;;;67.73;35.47;;;4.80;99.90;;;;;;5095750;28;20447;-65
2021/03/09 03:43:26;;;;;;;62.60;32.90;;;4.80;99.90;;;;;;5110581;28;20569;-64
2021/03/09 03:45:52;;;;;;;53.20;29.17;;;4.80;99.90;;;;;;5108835;28;20438;-67
2021/03/09 03:48:21;;;;;;;57.47;32.57;;;4.80;99.90;;;;;;5109253;28;20454;-64
2021/03/09 03:50:47;;;;;;;66.87;34.23;;;4.80;99.90;;;;;;5110569;28;20427;-64
2021/03/09 03:53:21;;;;;;;62.53;34.57;;;4.80;99.90;;;;;;5110835;28;20830;-67
2021/03/09 03:56:09;;;;;;;65.00;35.10;;;4.80;99.90;;;;;;5111108;28;20540;-63
2021/03/09 03:58:43;;;;;;;67.23;34.60;;;4.70;99.90;;;;;;5110588;28;20525;-66
2021/03/09 04:01:12;;;;;;;66.80;37.60;;;4.70;99.90;;;;;;5098945;28;20431;-66
2021/03/09 04:03:39;;;;;;;59.00;34.13;;;4.70;99.90;;;;;;5111877;28;20505;-65
2021/03/09 04:06:06;;;;;;;65.77;35.43;;;4.70;99.90;;;;;;5110864;28;20429;-64
2021/03/09 04:08:34;;;;;;;67.57;33.83;;;4.70;99.90;;;;;;5111399;28;20418;-66
2021/03/09 04:11:02;;;;;;;58.30;33.33;;;4.70;99.90;;;;;;5112051;28;20422;-64
2021/03/09 04:13:31;;;;;;;63.93;36.47;;;4.70;99.90;;;;;;5111460;28;20499;-65
2021/03/09 04:15:58;;;;;;;63.90;34.03;;;4.70;99.90;;;;;;5112114;28;20454;-66
2021/03/09 04:18:26;;;;;;;65.47;35.30;;;4.70;99.90;;;;;;5120269;28;20444;-64
2021/03/09 04:20:54;;;;;;;65.70;37.07;;;4.70;99.90;;;;;;5110352;28;20445;-64
2021/03/09 04:23:21;;;;;;;60.17;33.47;;;4.50;99.90;;;;;;5112224;28;20904;-64
2021/03/09 04:25:49;;;;;;;59.97;34.83;;;4.60;99.90;;;;;;5110658;28;20445;-62
2021/03/09 04:28:17;;;;;;;134.27;63.87;;;4.60;99.90;;;;;;5108124;28;20431;-63
2021/03/09 04:30:43;;;;;;;69.53;37.63;;;4.60;99.90;;;;;;5092497;28;20421;-64
2021/03/09 04:33:11;;;;;;;65.50;36.30;;;4.60;99.90;;;;;;5110566;28;20516;-63
2021/03/09 04:35:38;;;;;;;69.40;38.37;;;4.50;99.90;;;;;;5110042;28;20429;-63
2021/03/09 04:38:05;;;;;;;64.83;37.17;;;4.40;99.90;;;;;;5104530;28;20909;-65
2021/03/09 04:40:34;;;;;;;72.83;40.07;;;4.50;99.90;;;;;;5113424;28;20428;-63
2021/03/09 04:43:00;;;;;;;72.80;39.10;;;4.50;99.90;;;;;;5118589;27;20573;-63
2021/03/09 04:45:28;;;;;;;67.17;39.30;;;4.60;99.90;;;;;;5090617;28;20460;-64
2021/03/09 04:47:54;;;;;;;67.20;39.33;;;4.60;99.90;;;;;;5091441;28;20517;-63
2021/03/09 04:50:22;;;;;;;64.63;35.50;;;4.70;99.90;;;;;;5109051;28;20441;-65
2021/03/09 04:52:49;;;;;;;80.07;40.77;;;4.70;99.90;;;;;;5110127;28;20820;-66
2021/03/09 04:55:19;;;;;;;84.40;44.10;;;4.70;99.90;;;;;;5090996;28;20450;-63
2021/03/09 04:57:46;;;;;;;87.47;48.87;;;4.70;99.90;;;;;;5096745;28;20429;-66
2021/03/09 05:00:14;;;;;;;89.27;44.87;;;4.60;99.90;;;;;;5108855;28;20499;-63
2021/03/09 05:02:42;;;;;;;79.47;45.07;;;4.50;99.90;;;;;;5110571;28;20539;-64
2021/03/09 05:05:09;;;;;;;72.80;39.33;;;4.40;99.90;;;;;;5109489;28;20508;-63
2021/03/09 05:07:36;;;;;;;79.90;42.70;;;4.50;99.90;;;;;;5109108;28;20539;-63
2021/03/09 05:10:03;;;;;;;89.47;48.23;;;4.50;99.90;;;;;;5107386;28;20776;-63
2021/03/09 05:12:29;;;;;;;81.80;42.07;;;4.50;99.90;;;;;;5109044;28;20544;-63
2021/03/09 05:14:56;;;;;;;70.97;39.47;;;4.40;99.90;;;;;;5107682;28;20966;-63
2021/03/09 05:17:23;;;;;;;76.23;44.33;;;4.50;99.90;;;;;;5091813;28;20929;-63
2021/03/09 05:19:50;;;;;;;70.90;42.57;;;4.40;99.90;;;;;;5107478;28;20532;-65
2021/03/09 05:22:17;;;;;;;81.40;42.77;;;4.30;99.90;;;;;;5092941;28;20930;-63
2021/03/09 05:24:43;;;;;;;76.00;43.47;;;4.20;99.90;;;;;;5109241;28;20466;-63
2021/03/09 05:27:10;;;;;;;87.07;46.43;;;4.20;99.90;;;;;;5108711;28;20469;-63
2021/03/09 05:29:37;;;;;;;84.83;43.23;;;4.20;99.90;;;;;;5107605;28;20469;-63
2021/03/09 05:32:03;;;;;;;76.07;41.57;;;4.20;99.90;;;;;;5108864;28;20480;-63
2021/03/09 05:34:30;;;;;;;92.17;49.53;;;4.30;99.90;;;;;;5108735;28;20479;-63
2021/03/09 05:36:57;;;;;;;81.83;44.00;;;4.30;99.90;;;;;;5109015;28;20821;-60
2021/03/09 05:39:24;;;;;;;68.60;40.80;;;4.30;99.90;;;;;;5105496;28;20530;-50
2021/03/09 05:41:51;;;;;;;69.67;40.63;;;5.40;99.90;;;;;;5089394;28;20848;-52
2021/03/09 05:44:17;;;;;;;74.20;41.40;;;5.20;99.90;;;;;;5072425;28;20488;-68
2021/03/09 05:46:44;;;;;;;66.20;40.30;;;4.90;99.90;;;;;;5070014;28;20436;-70
2021/03/09 05:49:11;;;;;;;65.67;38.90;;;4.60;99.90;;;;;;5105809;28;20539;-70
2021/03/09 05:51:38;;;;;;;68.77;39.70;;;4.60;99.90;;;;;;5090891;28;20456;-71
2021/03/09 05:54:06;;;;;;;73.80;41.97;;;4.60;99.90;;;;;;5110598;28;20420;-67
2021/03/09 05:56:33;;;;;;;73.00;40.43;;;4.50;99.90;;;;;;5111844;28;20465;-71
2021/03/09 05:58:59;;;;;;;72.63;41.33;;;4.40;99.90;;;;;;5102556;27;20897;-67
2021/03/09 06:01:27;;;;;;;70.90;41.83;;;4.40;99.90;;;;;;5103438;27;20893;-66
2021/03/09 06:03:54;;;;;;;83.20;45.57;;;4.30;99.90;;;;;;5108013;28;20482;-63
2021/03/09 06:06:20;;;;;;;68.23;36.87;;;4.20;99.90;;;;;;5112220;28;20424;-61
2021/03/09 06:08:47;;;;;;;84.77;45.20;;;4.30;99.90;;;;;;5093738;28;20429;-61
2021/03/09 06:11:16;;;;;;;92.80;46.00;;;4.20;99.90;;;;;;5092870;28;20425;-65
2021/03/09 06:13:42;;;;;;;77.63;41.67;;;4.20;99.90;;;;;;5111619;28;20431;-63
2021/03/09 06:16:12;;;;;;;82.10;44.63;;;4.20;99.90;;;;;;5104507;28;20443;-61
2021/03/09 06:18:52;;;;;;;83.17;47.50;;;4.20;99.90;;;;;;5109793;28;20508;-65
2021/03/09 06:21:21;;;;;;;82.17;47.47;;;4.20;99.90;;;;;;5111702;28;20481;-66
2021/03/09 06:23:49;;;;;;;86.83;47.23;;;4.20;99.90;;;;;;5112457;28;20452;-62
2021/03/09 06:26:38;;;;;;;80.20;45.50;;;4.20;99.90;;;;;;5112384;28;20449;-62
2021/03/09 06:29:09;;;;;;;86.47;46.80;;;4.20;99.90;;;;;;5110543;28;20521;-62
2021/03/09 06:31:36;;;;;;;77.97;43.80;;;4.20;99.90;;;;;;5110713;28;20533;-61
2021/03/09 06:34:26;;;;;;;87.70;46.43;;;4.20;99.90;;;;;;5113012;28;20452;-67
2021/03/09 06:37:03;;;;;;;78.43;42.30;;;4.20;99.90;;;;;;5108442;28;20482;-62
2021/03/09 06:39:50;;;;;;;68.93;41.77;;;4.20;99.90;;;;;;5105491;27;20972;-63
2021/03/09 06:42:19;;;;;;;85.50;44.77;;;4.20;99.90;;;;;;5115141;27;20442;-64
2021/03/09 06:44:53;;;;;;;66.53;39.97;;;4.20;99.90;;;;;;5101919;28;20543;-63
2021/03/09 06:47:32;;;;;;;83.23;45.40;;;4.20;99.90;;;;;;5103511;28;20932;-64
2021/03/09 06:49:58;;;;;;;75.67;40.37;;;4.20;99.90;;;;;;5101557;28;20702;-61
2021/03/09 06:52:25;;;;;;;71.57;39.47;;;4.20;99.90;;;;;;5116186;27;20532;-63
2021/03/09 06:54:53;;;;;;;80.47;41.83;;;4.20;99.90;;;;;;5111078;28;20466;-62
2021/03/09 06:57:21;;;;;;;65.20;38.60;;;4.20;99.90;;;;;;5105501;27;20449;-61
2021/03/09 06:59:49;;;;;;;64.33;37.30;;;4.30;99.90;;;;;;5103943;28;20529;-61
2021/03/09 07:02:17;;;;;;;69.40;39.50;;;4.20;99.90;;;;;;5107634;28;20446;-61
2021/03/09 07:04:44;;;;;;;75.40;39.90;;;4.20;99.90;;;;;;5104427;28;20811;-62
2021/03/09 07:07:13;;;;;;;60.87;34.33;;;4.20;99.90;;;;;;5107687;28;20464;-62
2021/03/09 07:09:40;;;;;;;73.73;40.00;;;4.10;99.90;;;;;;5100193;28;20416;-64
2021/03/09 07:12:10;;;;;;;62.23;36.17;;;4.20;99.90;;;;;;5095191;28;20414;-62
2021/03/09 07:14:41;;;;;;;55.20;32.67;;;4.20;99.90;;;;;;5096862;28;20467;-61
2021/03/09 07:17:08;;;;;;;63.07;32.53;;;4.30;99.90;;;;;;5107296;28;20420;-64
2021/03/09 07:19:40;;;;;;;62.30;35.47;;;4.30;99.90;;;;;;5095314;28;20533;-63
2021/03/09 07:22:07;;;;;;;68.60;34.40;;;4.30;99.90;;;;;;5103766;28;20945;-64
2021/03/09 07:24:33;;;;;;;62.37;33.67;;;4.30;99.90;;;;;;5110192;28;20563;-63
2021/03/09 07:27:11;;;;;;;60.47;33.63;;;4.30;99.90;;;;;;5110913;28;20467;-62
2021/03/09 07:29:41;;;;;;;57.50;31.43;;;4.30;99.90;;;;;;5106167;28;20470;-62
2021/03/09 07:32:10;;;;;;;69.87;39.00;;;4.30;99.90;;;;;;5103867;28;20426;-61
2021/03/09 07:34:36;;;;;;;59.23;36.10;;;4.30;99.90;;;;;;5107470;28;20438;-63
2021/03/09 07:37:03;;;;;;;56.37;34.20;;;4.30;99.90;;;;;;5107082;28;20921;-61
2021/03/09 07:39:30;;;;;;;59.03;35.87;;;4.30;99.90;;;;;;5105623;27;20459;-66
2021/03/09 07:41:58;;;;;;;59.27;32.83;;;4.40;99.90;;;;;;5092332;28;20784;-62
2021/03/09 07:44:25;;;;;;;52.17;31.47;;;4.30;99.90;;;;;;5111253;27;20563;-62
2021/03/09 07:46:53;;;;;;;65.00;36.20;;;4.30;99.90;;;;;;5109280;27;20479;-65
2021/03/09 07:49:20;;;;;;;58.60;32.40;;;4.40;99.90;;;;;;5122424;27;20445;-65
2021/03/09 07:52:09;;;;;;;49.77;29.70;;;4.40;99.90;;;;;;5121581;27;20437;-65
2021/03/09 07:54:36;;;;;;;65.33;34.87;;;4.40;99.90;;;;;;5099110;28;20430;-66
2021/03/09 07:57:20;;;;;;;56.87;33.60;;;4.30;99.90;;;;;;5112182;27;20558;-64
2021/03/09 07:59:56;;;;;;;56.23;31.87;;;4.20;99.90;;;;;;5108045;28;20497;-64
2021/03/09 08:02:49;;;;;;;50.37;29.27;;;4.20;99.90;;;;;;5110439;28;20844;-65
2021/03/09 08:05:17;;;;;;;54.30;29.67;;;4.10;99.90;;;;;;5088809;28;20765;-65
2021/03/09 08:07:51;;;;;;;50.57;30.40;;;4.20;99.90;;;;;;5091847;28;20790;-66
2021/03/09 08:10:40;;;;;;;53.37;32.40;;;4.20;99.90;;;;;;5110104;28;20423;-64
2021/03/09 08:13:25;;;;;;;56.67;32.03;;;4.20;99.90;;;;;;5110317;28;20471;-66
2021/03/09 08:16:07;;;;;;;47.07;30.10;;;4.20;99.90;;;;;;5109724;28;20412;-67
2021/03/09 08:18:44;;;;;;;58.50;31.17;;;4.20;99.90;;;;;;5105306;28;20453;-68
2021/03/09 08:21:11;;;;;;;54.53;30.90;;;4.10;99.90;;;;;;5089500;28;20819;-67
2021/03/09 08:23:56;;;;;;;49.90;29.53;;;4.10;99.90;;;;;;5110041;28;20963;-59
2021/03/09 08:26:45;;;;;;;49.53;30.07;;;4.10;99.90;;;;;;5116232;27;21009;-66
2021/03/09 08:29:35;;;;;;;55.77;32.33;;;4.10;99.90;;;;;;5108709;28;20455;-69
2021/03/09 08:32:34;;;;;;;59.07;33.20;;;4.20;99.90;;;;;;5097689;28;20538;-66
2021/03/09 08:35:38;;;;;;;53.80;30.23;;;4.30;99.90;;;;;;5106162;28;20515;-66
2021/03/09 08:38:32;;;;;;;59.63;32.33;;;4.40;99.90;;;;;;5109010;28;20478;-67
2021/03/09 08:41:03;;;;;;;60.63;33.80;;;4.30;99.90;;;;;;5070516;28;20542;-63
2021/03/09 08:43:30;;;;;;;58.13;32.00;;;4.20;99.90;;;;;;5108271;28;20583;-64
2021/03/09 08:45:58;;;;;;;56.10;33.17;;;4.30;99.90;;;;;;5091264;28;21000;-65
2021/03/09 08:48:49;;;;;;;52.60;31.83;;;4.40;99.90;;;;;;5110342;28;20444;-65
2021/03/09 08:51:50;;;;;;;52.57;31.97;;;4.40;99.90;;;;;;5110730;28;20519;-66
2021/03/09 08:54:28;;;;;;;51.30;29.90;;;4.40;99.90;;;;;;5104260;28;20432;-65
2021/03/09 08:56:56;;;;;;;54.57;30.77;;;4.50;99.90;;;;;;5102399;28;20565;-63
2021/03/09 08:59:24;;;;;;;50.67;29.80;;;4.60;99.90;;;;;;5094663;28;20499;-64
2021/03/09 09:01:51;;;;;;;47.27;29.63;;;4.60;99.90;;;;;;5103364;28;20839;-65
2021/03/09 09:04:19;;;;;;;53.03;29.93;;;4.70;99.90;;;;;;5098326;28;20830;-63
2021/03/09 09:06:46;;;;;;;53.20;33.30;;;4.60;99.90;;;;;;5108228;28;20457;-61
2021/03/09 09:09:28;;;;;;;51.67;30.93;;;4.60;99.90;;;;;;5111275;28;20506;-63
2021/03/09 09:11:55;;;;;;;44.30;28.73;;;4.70;99.90;;;;;;5113471;28;20456;-62
2021/03/09 09:14:22;;;;;;;45.43;28.07;;;4.60;99.90;;;;;;5065394;28;20447;-63
2021/03/09 09:16:49;;;;;;;45.20;26.73;;;4.50;99.90;;;;;;5097313;28;20463;-66
2021/03/09 09:19:15;;;;;;;39.90;24.63;;;4.50;99.90;;;;;;5102041;28;20449;-63
2021/03/09 09:21:47;;;;;;;40.90;25.47;;;4.50;99.90;;;;;;5083564;28;21054;-62
2021/03/09 09:24:21;;;;;;;40.57;25.33;;;4.60;99.90;;;;;;5102949;28;20465;-62
2021/03/09 09:26:59;;;;;;;48.73;28.80;;;4.70;99.90;;;;;;5100457;28;20464;-62
2021/03/09 09:29:26;;;;;;;47.77;29.07;;;4.60;99.90;;;;;;5101664;27;21086;-63
2021/03/09 09:32:00;;;;;;;45.40;27.30;;;4.50;99.90;;;;;;5099276;27;20467;-63
2021/03/09 09:34:37;;;;;;;42.37;26.93;;;4.50;99.90;;;;;;5109080;27;20440;-66
2021/03/09 09:37:13;;;;;;;44.30;27.77;;;4.60;99.90;;;;;;5104122;27;20887;-62
2021/03/09 09:39:41;;;;;;;44.73;27.90;;;4.60;99.90;;;;;;5105036;27;20434;-64
2021/03/09 09:42:15;;;;;;;42.13;25.93;;;4.60;99.90;;;;;;5103331;27;20610;-61
2021/03/09 09:44:42;;;;;;;40.80;26.53;;;4.70;99.90;;;;;;5099851;27;20487;-66
2021/03/09 09:47:10;;;;;;;40.85;30.23;;;4.60;99.90;;;;;;5092417;27;20437;-52
2021/03/09 09:49:38;;;;;;;40.03;25.33;;;5.50;99.90;;;;;;5102418;28;20206;-48
2021/03/09 09:52:14;;;;;;;44.40;27.77;;;5.50;99.90;;;;;;5094934;28;20446;-62
2021/03/09 09:54:52;;;;;;;38.27;24.40;;;5.60;99.90;;;;;;5108266;28;20429;-63
2021/03/09 09:57:19;;;;;;;40.53;23.60;;;5.40;99.90;;;;;;5095305;28;20792;-64
2021/03/09 09:59:45;;;;;;;37.50;23.60;;;5.10;99.90;;;;;;5108648;28;20470;-64
2021/03/09 10:02:16;;;;;;;39.33;24.30;;;5.10;99.90;;;;;;5080911;28;20457;-62
2021/03/09 10:04:43;;;;;;;41.30;24.07;;;5.00;99.90;;;;;;5110021;28;20483;-62
2021/03/09 10:07:17;;;;;;;47.43;27.03;;;4.90;99.90;;;;;;5080192;28;20492;-63
2021/03/09 10:10:03;;;;;;;39.37;26.30;;;4.90;99.90;;;;;;5110505;28;20495;-65
2021/03/09 10:12:34;;;;;;;40.13;23.70;;;4.90;99.90;;;;;;5092928;28;20527;-65
2021/03/09 10:15:01;;;;;;;34.73;20.03;;;5.00;99.90;;;;;;5114251;27;20466;-63
2021/03/09 10:17:27;;;;;;;43.50;24.57;;;5.00;99.90;;;;;;5092136;28;20517;-63
2021/03/09 10:19:55;;;;;;;36.67;22.33;;;5.10;99.90;;;;;;5110517;28;20501;-63
2021/03/09 10:22:23;;;;;;;47.77;26.60;;;5.00;99.90;;;;;;5111811;28;20822;-64
2021/03/09 10:24:50;;;;;;;38.57;24.33;;;5.10;99.90;;;;;;5124441;27;20455;-63
2021/03/09 10:27:19;;;;;;;37.43;23.03;;;5.00;99.90;;;;;;5120259;27;20524;-62
2021/03/09 10:29:46;;;;;;;36.77;23.00;;;5.00;99.90;;;;;;5111293;28;20469;-63
2021/03/09 10:32:17;;;;;;;32.30;21.07;;;5.10;99.90;;;;;;5111318;28;20525;-63
2021/03/09 10:34:47;;;;;;;34.97;20.90;;;5.00;99.90;;;;;;5100074;28;20988;-63
2021/03/09 10:37:15;;;;;;;32.23;19.60;;;5.10;99.90;;;;;;5092059;28;20429;-61
2021/03/09 10:39:56;;;;;;;36.40;21.63;;;5.10;99.90;;;;;;5109937;28;20447;-65
2021/03/09 10:42:27;;;;;;;28.23;19.17;;;5.00;99.90;;;;;;5111790;28;20438;-63
2021/03/09 10:44:55;;;;;;;26.77;17.20;;;5.10;99.90;;;;;;5108380;28;20491;-63
2021/03/09 10:47:21;;;;;;;30.33;19.57;;;5.00;99.90;;;;;;5105540;28;20528;-66
2021/03/09 10:49:48;;;;;;;31.83;18.27;;;5.00;99.90;;;;;;5093722;28;20502;-64
2021/03/09 10:52:14;;;;;;;28.20;17.30;;;5.10;99.90;;;;;;5085854;28;20453;-65
2021/03/09 10:54:43;;;;;;;30.95;20.75;;;5.20;99.90;;;;;;5090184;28;20505;-66
2021/03/09 10:57:11;;;;;;;32.87;20.47;;;5.20;99.90;;;;;;5079659;28;20286;-64
2021/03/09 10:59:39;;;;;;;29.47;19.20;;;5.10;99.90;;;;;;5107033;28;20432;-65
2021/03/09 11:02:07;;;;;;;31.23;19.30;;;5.10;99.90;;;;;;5095884;28;20844;-63
2021/03/09 11:04:35;;;;;;;34.90;21.00;;;5.10;99.90;;;;;;5105733;28;20472;-65
2021/03/09 11:07:02;;;;;;;28.87;18.07;;;5.10;99.90;;;;;;5109621;28;20425;-64
2021/03/09 11:09:28;;;;;;;30.07;20.47;;;5.30;99.90;;;;;;5103253;28;20477;-64
2021/03/09 11:11:55;;;;;;;32.83;18.90;;;5.40;99.90;;;;;;5103859;28;20835;-63
2021/03/09 11:14:21;;;;;;;32.63;19.40;;;5.40;99.90;;;;;;5113926;27;20729;-65
2021/03/09 11:16:49;;;;;;;32.57;19.47;;;5.40;99.90;;;;;;5109735;28;20467;-66
2021/03/09 11:19:15;;;;;;;35.37;21.37;;;5.50;99.90;;;;;;5103555;28;20427;-63
2021/03/09 11:21:42;;;;;;;31.37;20.37;;;5.50;99.90;;;;;;5105460;28;20893;-65
2021/03/09 11:24:09;;;;;;;36.57;21.73;;;5.50;99.90;;;;;;5090413;28;20488;-64
2021/03/09 11:26:36;;;;;;;31.63;19.67;;;5.70;99.90;;;;;;5110547;28;20880;-65
2021/03/09 11:29:03;;;;;;;34.00;21.27;;;5.60;99.90;;;;;;5092054;28;20454;-63
2021/03/09 11:31:30;;;;;;;36.13;24.13;;;5.60;99.90;;;;;;5107517;28;20449;-63
2021/03/09 11:33:58;;;;;;;37.67;21.23;;;5.50;99.90;;;;;;5110489;28;20927;-63
2021/03/09 11:36:24;;;;;;;36.07;22.03;;;5.50;99.90;;;;;;5105736;28;20452;-62
2021/03/09 11:38:52;;;;;;;33.87;21.43;;;5.50;99.90;;;;;;5091660;28;20947;-63
2021/03/09 11:41:22;;;;;;;37.90;22.10;;;5.40;99.90;;;;;;5092311;28;20434;-65
2021/03/09 11:43:49;;;;;;;36.07;23.77;;;5.40;99.90;;;;;;5107451;28;20468;-63
2021/03/09 11:46:16;;;;;;;41.93;23.30;;;5.40;99.90;;;;;;5101804;28;20449;-63
2021/03/09 11:48:48;;;;;;;42.63;24.53;;;5.50;99.90;;;;;;5114573;28;20696;-64
2021/03/09 11:51:15;;;;;;;40.73;24.10;;;5.60;99.90;;;;;;5077016;28;20548;-64
2021/03/09 11:53:44;;;;;;;46.10;27.93;;;5.50;99.90;;;;;;5103468;28;20453;-64
2021/03/09 11:56:11;;;;;;;42.57;27.00;;;5.60;99.90;;;;;;5104739;28;20895;-66
2021/03/09 11:58:38;;;;;;;48.33;27.87;;;5.50;99.90;;;;;;5091520;28;20451;-64
2021/03/09 12:01:04;;;;;;;43.40;26.53;;;5.50;99.90;;;;;;5090912;28;20448;-64
2021/03/09 12:03:31;;;;;;;47.83;27.87;;;5.60;99.90;;;;;;5088602;28;21006;-63
2021/03/09 12:05:57;;;;;;;45.00;28.83;;;5.70;99.90;;;;;;5103365;28;20439;-66
2021/03/09 12:08:25;;;;;;;52.30;27.40;;;5.70;99.90;;;;;;5090587;28;20534;-65
2021/03/09 12:10:51;;;;;;;53.53;30.27;;;5.80;99.90;;;;;;5108269;28;20519;-65
2021/03/09 12:13:18;;;;;;;45.37;27.87;;;5.80;99.90;;;;;;5109298;28;20960;-65
2021/03/09 12:15:46;;;;;;;45.20;25.90;;;5.90;99.90;;;;;;5086912;28;20535;-62
2021/03/09 12:18:13;;;;;;;50.43;28.93;;;6.00;99.90;;;;;;5089446;28;20451;-65
2021/03/09 12:20:39;;;;;;;55.87;31.67;;;6.00;99.90;;;;;;5109639;28;20531;-64
2021/03/09 12:23:07;;;;;;;46.70;29.20;;;5.80;99.90;;;;;;5106692;28;20952;-65
2021/03/09 12:25:34;;;;;;;58.77;31.93;;;5.70;99.90;;;;;;5107528;27;20447;-67
2021/03/09 12:28:01;;;;;;;49.80;27.10;;;5.70;99.90;;;;;;5085065;28;20531;-67
2021/03/09 12:30:28;;;;;;;56.30;31.63;;;5.80;99.90;;;;;;5074297;28;20975;-63
2021/03/09 12:32:54;;;;;;;49.70;29.53;;;5.80;99.90;;;;;;5079022;28;21455;-71
2021/03/09 12:35:21;;;;;;;47.20;26.23;;;5.80;99.90;;;;;;5096107;28;20471;-67
2021/03/09 12:37:50;;;;;;;338.43;152.10;;;6.10;99.90;;;;;;5106861;28;20481;-64
2021/03/09 12:40:17;;;;;;;52.37;31.63;;;6.20;99.90;;;;;;5090513;28;20453;-63
2021/03/09 12:42:44;;;;;;;47.63;29.00;;;6.20;99.90;;;;;;5103315;28;20507;-66
2021/03/09 12:45:11;;;;;;;49.33;27.73;;;6.20;99.90;;;;;;5090739;28;20567;-65
2021/03/09 12:47:38;;;;;;;53.10;30.90;;;6.10;99.90;;;;;;5103326;28;20471;-64